Time;durP1;ratioP1;P1;durP2;ratioP2;P2;SDS_P1;SDS_P2;PMS_P1;PMS_P2;Temp;Humidity;BMP_temperature;BMP_pressure;BME280_temperature;BME280_humidity;BME280_pressure;Samples;Min_cycle;Max_cycle;Signal;HPM_P1;HPM_P2
2021/10/12 00:00:50;;;;;;;7.68;1.70;;;10.30;99.90;;;;;;5046678;28;20103;-75
2021/10/12 00:03:16;;;;;;;11.50;2.30;;;10.30;99.90;;;;;;5047335;28;20045;-75
2021/10/12 00:05:42;;;;;;;10.95;2.17;;;10.30;99.90;;;;;;5031435;28;20041;-75
2021/10/12 00:08:08;;;;;;;5.35;1.70;;;10.40;99.90;;;;;;5027718;28;20041;-75
2021/10/12 00:10:34;;;;;;;5.47;2.08;;;10.40;99.90;;;;;;5030776;28;20403;-75
2021/10/12 00:13:00;;;;;;;5.70;1.98;;;10.30;99.90;;;;;;5047399;28;20044;-76
2021/10/12 00:15:26;;;;;;;5.35;1.75;;;10.30;99.90;;;;;;5010025;28;20045;-75
2021/10/12 00:17:52;;;;;;;12.88;2.10;;;10.40;99.90;;;;;;4993666;28;20458;-71
2021/10/12 00:20:18;;;;;;;7.32;2.00;;;10.30;99.90;;;;;;5030122;28;20033;-71
2021/10/12 00:22:44;;;;;;;10.38;2.30;;;10.30;99.90;;;;;;5014465;28;20364;-71
2021/10/12 00:25:10;;;;;;;6.88;1.80;;;10.30;99.90;;;;;;5013428;28;20041;-71
2021/10/12 00:27:36;;;;;;;9.35;2.33;;;10.40;99.90;;;;;;5030716;28;20286;-71
2021/10/12 00:30:06;;;;;;;11.07;1.88;;;10.40;99.90;;;;;;5014538;28;20488;-72
2021/10/12 00:32:34;;;;;;;6.43;2.05;;;10.30;99.90;;;;;;5057084;28;20091;-71
2021/10/12 00:35:01;;;;;;;8.23;2.30;;;10.30;99.90;;;;;;5044382;28;20037;-71
2021/10/12 00:37:27;;;;;;;9.20;2.60;;;10.30;99.90;;;;;;5061053;28;20057;-71
2021/10/12 00:39:53;;;;;;;7.05;2.45;;;10.30;99.90;;;;;;5012604;28;20388;-72
2021/10/12 00:42:19;;;;;;;10.98;2.30;;;10.40;99.90;;;;;;5053150;28;20044;-72
2021/10/12 00:44:45;;;;;;;10.82;2.40;;;10.40;99.90;;;;;;5030313;28;20402;-72
2021/10/12 00:47:11;;;;;;;10.15;2.50;;;10.40;99.90;;;;;;5028772;28;20033;-72
2021/10/12 00:49:37;;;;;;;6.47;2.05;;;10.40;99.90;;;;;;5046198;28;20124;-72
2021/10/12 00:52:04;;;;;;;7.85;2.25;;;10.40;99.90;;;;;;5034456;28;20042;-70
2021/10/12 00:54:30;;;;;;;10.48;2.55;;;10.40;99.90;;;;;;5058840;28;20041;-71
2021/10/12 00:56:56;;;;;;;9.80;2.60;;;10.40;99.90;;;;;;5045801;28;20033;-70
2021/10/12 00:59:22;;;;;;;9.70;2.95;;;10.40;99.90;;;;;;5029775;28;20133;-71
2021/10/12 01:01:48;;;;;;;11.25;2.42;;;10.40;99.90;;;;;;5030294;28;20041;-71
2021/10/12 01:04:14;;;;;;;12.73;2.88;;;10.40;99.90;;;;;;5046541;28;20200;-70
2021/10/12 01:06:40;;;;;;;12.07;2.53;;;10.40;99.90;;;;;;5046816;28;20152;-70
2021/10/12 01:09:06;;;;;;;10.43;2.55;;;10.40;99.90;;;;;;5030040;28;20127;-70
2021/10/12 01:11:37;;;;;;;10.30;2.40;;;10.50;99.90;;;;;;5014016;28;20049;-71
2021/10/12 01:14:03;;;;;;;11.48;2.20;;;10.50;99.90;;;;;;5030592;28;20044;-71
2021/10/12 01:16:30;;;;;;;12.30;2.88;;;10.50;99.90;;;;;;5045936;28;20103;-70
2021/10/12 01:19:03;;;;;;;12.82;3.03;;;10.50;99.90;;;;;;5013606;28;20554;-69
2021/10/12 01:21:36;;;;;;;11.18;2.25;;;10.50;99.90;;;;;;5045892;28;20045;-70
2021/10/12 01:24:02;;;;;;;12.90;2.20;;;10.60;99.90;;;;;;5030623;28;20049;-70
2021/10/12 01:26:29;;;;;;;14.32;2.83;;;10.60;99.90;;;;;;5012394;28;20076;-71
2021/10/12 01:28:55;;;;;;;15.50;3.22;;;10.60;99.90;;;;;;5029151;28;20048;-70
2021/10/12 01:31:27;;;;;;;12.15;2.25;;;10.60;99.90;;;;;;5046746;28;20140;-70
2021/10/12 01:33:53;;;;;;;15.10;2.70;;;10.60;99.90;;;;;;5045964;28;20053;-70
2021/10/12 01:36:20;;;;;;;12.15;2.58;;;10.60;99.90;;;;;;5046137;28;20047;-70
2021/10/12 01:38:46;;;;;;;15.95;2.75;;;10.60;99.90;;;;;;5029183;28;20081;-70
2021/10/12 01:41:12;;;;;;;15.25;2.67;;;10.60;99.90;;;;;;5028292;28;20033;-70
2021/10/12 01:43:39;;;;;;;18.85;2.72;;;10.60;99.90;;;;;;5045856;28;20535;-70
2021/10/12 01:46:06;;;;;;;15.50;2.53;;;10.60;99.90;;;;;;5026579;28;20045;-70
2021/10/12 01:48:36;;;;;;;12.05;2.70;;;10.60;99.90;;;;;;5018842;28;20049;-70
2021/10/12 01:51:03;;;;;;;16.67;2.75;;;10.60;99.90;;;;;;5025491;28;20107;-70
2021/10/12 01:53:30;;;;;;;11.80;2.30;;;10.60;99.90;;;;;;5028105;28;20041;-70
2021/10/12 01:55:57;;;;;;;9.55;2.30;;;10.60;99.90;;;;;;5045284;28;20522;-70
2021/10/12 01:58:23;;;;;;;13.65;2.05;;;10.60;99.90;;;;;;5042632;28;20041;-70
2021/10/12 02:00:49;;;;;;;9.73;2.10;;;10.60;99.90;;;;;;5043116;28;20110;-70
2021/10/12 02:03:15;;;;;;;9.15;1.63;;;10.60;99.90;;;;;;5023507;28;20492;-70
2021/10/12 02:05:41;;;;;;;11.93;2.08;;;10.60;99.90;;;;;;5025849;28;20037;-70
2021/10/12 02:08:07;;;;;;;15.15;3.03;;;10.60;99.90;;;;;;5028633;28;20075;-70
2021/10/12 02:10:33;;;;;;;8.85;1.77;;;10.60;99.90;;;;;;5058500;28;20534;-70
2021/10/12 02:12:59;;;;;;;11.10;1.90;;;10.60;99.90;;;;;;5026809;28;20131;-70
2021/10/12 02:15:25;;;;;;;11.07;1.55;;;10.60;99.90;;;;;;5060473;28;20045;-69
2021/10/12 02:17:51;;;;;;;10.57;1.95;;;10.60;99.90;;;;;;5059616;28;20041;-70
2021/10/12 02:20:17;;;;;;;12.48;2.10;;;10.70;99.90;;;;;;5028358;28;20049;-70
2021/10/12 02:22:43;;;;;;;10.60;1.98;;;10.60;99.90;;;;;;5046991;28;20514;-70
2021/10/12 02:25:10;;;;;;;12.48;2.50;;;10.70;99.90;;;;;;5029816;28;20127;-70
2021/10/12 02:27:36;;;;;;;11.88;2.00;;;10.70;99.90;;;;;;5047349;28;20107;-69
2021/10/12 02:30:06;;;;;;;11.02;2.35;;;10.70;99.90;;;;;;5029113;28;20044;-70
2021/10/12 02:32:33;;;;;;;8.48;1.77;;;10.70;99.90;;;;;;5030544;28;20124;-69
2021/10/12 02:34:59;;;;;;;8.98;2.10;;;10.70;99.90;;;;;;5030178;28;20041;-69
2021/10/12 02:37:25;;;;;;;12.55;2.55;;;10.70;99.90;;;;;;5063534;28;20045;-69
2021/10/12 02:39:51;;;;;;;12.15;2.33;;;10.70;99.90;;;;;;5030689;28;20037;-70
2021/10/12 02:42:17;;;;;;;13.13;2.17;;;10.70;99.90;;;;;;5049358;28;20041;-70
2021/10/12 02:44:42;;;;;;;12.55;2.22;;;10.70;99.90;;;;;;5031006;28;20079;-69
2021/10/12 02:47:08;;;;;;;11.90;2.25;;;10.70;99.90;;;;;;5045737;28;20495;-70
2021/10/12 02:49:34;;;;;;;12.15;2.00;;;10.60;99.90;;;;;;5033634;28;20128;-69
2021/10/12 02:52:00;;;;;;;16.05;2.60;;;10.60;99.90;;;;;;5044706;28;20056;-70
2021/10/12 02:54:26;;;;;;;9.57;2.05;;;10.60;99.90;;;;;;5016052;28;20057;-70
2021/10/12 02:56:55;;;;;;;11.32;2.00;;;10.60;99.90;;;;;;5012009;28;20128;-70
2021/10/12 02:59:20;;;;;;;10.77;2.25;;;10.60;99.90;;;;;;5014490;28;20048;-70
2021/10/12 03:01:46;;;;;;;16.63;2.53;;;10.60;99.90;;;;;;5043574;28;20045;-70
2021/10/12 03:04:12;;;;;;;12.18;2.20;;;10.60;99.90;;;;;;5049988;28;20084;-70
2021/10/12 03:06:37;;;;;;;12.35;2.35;;;10.60;99.90;;;;;;5033947;28;20084;-70
2021/10/12 03:09:03;;;;;;;14.20;2.80;;;10.60;99.90;;;;;;5016560;28;20041;-70
2021/10/12 03:11:29;;;;;;;13.82;2.20;;;10.60;99.90;;;;;;5051513;28;20045;-70
2021/10/12 03:13:55;;;;;;;9.85;2.25;;;10.60;99.90;;;;;;5033543;28;20041;-70
2021/10/12 03:16:21;;;;;;;11.05;2.15;;;10.60;99.90;;;;;;5033965;28;20044;-70
2021/10/12 03:18:47;;;;;;;11.77;2.53;;;10.50;99.90;;;;;;5049636;28;20124;-70
2021/10/12 03:21:14;;;;;;;15.80;2.60;;;10.60;99.90;;;;;;5032421;28;20462;-70
2021/10/12 03:23:41;;;;;;;15.63;2.88;;;10.60;99.90;;;;;;5050121;28;20480;-69
2021/10/12 03:26:07;;;;;;;14.38;2.80;;;10.60;99.90;;;;;;5033573;28;20049;-70
2021/10/12 03:28:33;;;;;;;15.23;3.17;;;10.70;99.90;;;;;;5050325;28;20049;-70
2021/10/12 03:30:58;;;;;;;14.30;2.40;;;10.70;99.90;;;;;;5049952;28;20062;-74
2021/10/12 03:33:24;;;;;;;13.43;2.58;;;10.70;99.90;;;;;;5031823;28;20076;-74
2021/10/12 03:35:58;;;;;;;13.52;2.50;;;10.70;99.90;;;;;;5049896;28;20037;-74
2021/10/12 03:38:25;;;;;;;15.98;2.13;;;10.70;99.90;;;;;;5049528;28;20055;-74
2021/10/12 03:40:55;;;;;;;14.48;2.47;;;10.70;99.90;;;;;;5031081;28;20047;-74
2021/10/12 03:43:23;;;;;;;16.85;2.30;;;10.80;99.90;;;;;;5048457;28;20120;-74
2021/10/12 03:45:49;;;;;;;10.88;2.20;;;10.80;99.90;;;;;;5049204;28;20056;-75
2021/10/12 03:48:15;;;;;;;12.73;2.25;;;10.80;99.90;;;;;;5065850;28;20057;-74
2021/10/12 03:50:41;;;;;;;14.32;2.28;;;10.80;99.90;;;;;;5008050;28;20454;-75
2021/10/12 03:53:07;;;;;;;13.20;2.42;;;10.80;99.90;;;;;;5029828;28;20041;-75
2021/10/12 03:55:39;;;;;;;11.82;2.30;;;10.80;99.90;;;;;;5031387;28;20045;-75
2021/10/12 03:58:05;;;;;;;18.23;2.58;;;10.80;99.90;;;;;;5049286;28;20076;-70
2021/10/12 04:00:34;;;;;;;13.57;2.47;;;10.80;99.90;;;;;;5049198;28;20862;-70
2021/10/12 04:03:00;;;;;;;11.10;2.47;;;10.80;99.90;;;;;;5048560;28;20060;-70
2021/10/12 04:05:26;;;;;;;15.05;2.97;;;10.90;99.90;;;;;;5049894;28;20041;-70
2021/10/12 04:07:52;;;;;;;13.45;2.30;;;10.80;99.90;;;;;;5033240;28;20049;-70
2021/10/12 04:10:18;;;;;;;15.15;2.85;;;10.80;99.90;;;;;;5048984;28;20037;-70
2021/10/12 04:12:43;;;;;;;9.10;2.30;;;10.90;99.90;;;;;;5066402;28;20071;-70
2021/10/12 04:15:09;;;;;;;12.68;2.45;;;10.80;99.90;;;;;;5016101;28;20076;-70
2021/10/12 04:17:35;;;;;;;9.77;2.30;;;10.90;99.90;;;;;;5048550;28;20060;-70
2021/10/12 04:20:04;;;;;;;11.48;2.22;;;10.90;99.90;;;;;;5046571;28;20048;-70
2021/10/12 04:22:30;;;;;;;11.75;2.28;;;10.80;99.90;;;;;;5031471;28;20442;-70
2021/10/12 04:24:56;;;;;;;12.38;2.35;;;10.90;99.90;;;;;;5047598;28;20078;-71
2021/10/12 04:27:22;;;;;;;8.50;2.13;;;10.90;99.90;;;;;;5048692;28;20143;-70
2021/10/12 04:29:48;;;;;;;11.60;2.30;;;10.90;99.90;;;;;;5032585;28;20105;-70
2021/10/12 04:32:13;;;;;;;15.25;2.78;;;10.90;99.90;;;;;;5032288;28;20033;-70
2021/10/12 04:34:39;;;;;;;20.27;3.33;;;10.90;99.90;;;;;;5018804;28;20052;-70
2021/10/12 04:37:05;;;;;;;10.85;2.67;;;10.90;99.90;;;;;;4979285;28;20443;-70
2021/10/12 04:39:34;;;;;;;15.57;3.15;;;10.90;99.90;;;;;;5028816;28;20492;-71
2021/10/12 04:42:01;;;;;;;17.42;2.88;;;10.90;99.90;;;;;;5016321;28;20048;-71
2021/10/12 04:44:28;;;;;;;20.30;3.25;;;10.90;99.90;;;;;;5015995;28;20124;-70
2021/10/12 04:46:54;;;;;;;10.77;2.78;;;10.90;99.90;;;;;;5006528;28;20412;-70
2021/10/12 04:49:20;;;;;;;17.83;3.10;;;10.90;99.90;;;;;;5022628;28;20059;-70
2021/10/12 04:51:46;;;;;;;16.33;3.10;;;10.90;99.90;;;;;;5048147;28;20057;-70
2021/10/12 04:54:12;;;;;;;15.13;3.35;;;10.80;99.90;;;;;;5048149;28;20056;-70
2021/10/12 04:56:38;;;;;;;14.20;2.97;;;10.80;99.90;;;;;;5031886;28;20511;-71
2021/10/12 04:59:04;;;;;;;13.35;2.70;;;10.80;99.90;;;;;;5030967;28;20495;-70
2021/10/12 05:01:30;;;;;;;15.60;4.07;;;10.80;99.90;;;;;;5047578;28;20056;-71
2021/10/12 05:03:56;;;;;;;11.20;2.88;;;10.80;99.90;;;;;;5031483;28;20049;-70
2021/10/12 05:06:25;;;;;;;10.27;2.78;;;10.80;99.90;;;;;;5048817;28;20045;-70
2021/10/12 05:08:51;;;;;;;11.00;3.20;;;10.80;99.90;;;;;;5049222;28;20051;-71
2021/10/12 05:11:16;;;;;;;12.07;3.15;;;10.90;99.90;;;;;;5031958;28;20056;-71
2021/10/12 05:13:42;;;;;;;16.10;3.20;;;10.90;99.90;;;;;;5032171;28;20087;-71
2021/10/12 05:16:13;;;;;;;21.20;3.97;;;10.90;99.90;;;;;;5015574;28;20037;-71
2021/10/12 05:18:41;;;;;;;16.08;3.60;;;10.90;99.90;;;;;;5046743;28;20494;-70
2021/10/12 05:21:07;;;;;;;16.95;3.80;;;10.90;99.90;;;;;;5027492;28;20041;-71
2021/10/12 05:23:35;;;;;;;18.80;4.30;;;10.90;99.90;;;;;;5050277;28;20045;-71
2021/10/12 05:26:06;;;;;;;12.20;3.25;;;10.90;99.90;;;;;;5032070;28;20571;-70
2021/10/12 05:28:35;;;;;;;22.70;4.30;;;11.00;99.90;;;;;;5042472;28;20068;-71
2021/10/12 05:31:04;;;;;;;14.65;3.70;;;11.00;99.90;;;;;;5021700;28;20045;-71
2021/10/12 05:33:30;;;;;;;21.73;4.15;;;11.00;99.90;;;;;;5010977;28;20048;-71
2021/10/12 05:35:56;;;;;;;14.98;3.97;;;11.00;99.90;;;;;;5045185;28;20055;-71
2021/10/12 05:38:22;;;;;;;20.05;4.32;;;11.00;99.90;;;;;;5043646;28;20049;-70
2021/10/12 05:40:48;;;;;;;14.57;2.92;;;11.00;99.90;;;;;;5028963;28;20251;-71
2021/10/12 05:43:15;;;;;;;13.15;3.60;;;11.00;99.90;;;;;;5027625;28;21445;-70
2021/10/12 05:45:41;;;;;;;16.88;4.32;;;11.00;99.90;;;;;;5045315;28;20056;-70
2021/10/12 05:48:08;;;;;;;12.30;4.05;;;11.00;99.90;;;;;;5013811;28;20458;-70
2021/10/12 05:50:35;;;;;;;16.67;5.00;;;11.00;99.90;;;;;;5018329;28;20446;-70
2021/10/12 05:55:56;;;;;;;18.60;5.40;;;11.00;99.90;;;;;;5026959;28;20041;-69
2021/10/12 05:58:53;;;;;;;14.27;5.43;;;11.00;99.90;;;;;;5040739;28;20287;-70
2021/10/12 06:01:12;;;;;;;16.23;5.13;;;11.00;99.90;;;;;;5039548;28;20399;-70
2021/10/12 06:03:38;;;;;;;11.45;4.13;;;11.00;99.90;;;;;;5048535;28;20037;-70
2021/10/12 06:06:05;;;;;;;11.00;4.85;;;11.00;99.90;;;;;;5045137;28;20049;-70
2021/10/12 06:08:35;;;;;;;12.93;4.65;;;11.00;99.90;;;;;;5014617;28;20139;-70
2021/10/12 06:11:05;;;;;;;11.98;4.63;;;11.10;99.90;;;;;;5045639;28;20538;-70
2021/10/12 06:13:36;;;;;;;17.52;5.35;;;11.10;99.90;;;;;;5019138;28;20059;-70
2021/10/12 06:16:02;;;;;;;14.90;4.85;;;11.10;99.90;;;;;;5043666;28;20080;-70
2021/10/12 06:18:28;;;;;;;10.88;4.45;;;11.10;99.90;;;;;;5026084;28;20053;-70
2021/10/12 06:20:54;;;;;;;15.43;5.65;;;11.10;99.90;;;;;;5008611;28;20087;-70
2021/10/12 06:23:22;;;;;;;13.73;5.30;;;11.00;99.90;;;;;;5033804;28;20072;-70
2021/10/12 06:25:48;;;;;;;17.95;5.90;;;11.10;99.90;;;;;;5029254;28;20083;-70
2021/10/12 06:28:16;;;;;;;14.70;5.07;;;11.10;99.90;;;;;;5044430;28;20052;-70
2021/10/12 06:30:42;;;;;;;14.63;4.95;;;11.10;99.90;;;;;;5055628;28;20060;-70
2021/10/12 06:33:12;;;;;;;39.28;7.55;;;11.10;99.90;;;;;;5044529;28;20041;-70
2021/10/12 06:35:38;;;;;;;13.00;5.72;;;11.10;99.90;;;;;;5050713;28;20044;-70
2021/10/12 06:38:05;;;;;;;22.15;7.78;;;11.10;99.90;;;;;;5045038;28;20048;-70
2021/10/12 06:40:31;;;;;;;11.65;5.82;;;11.20;99.90;;;;;;5045431;28;20128;-70
2021/10/12 06:42:58;;;;;;;16.38;6.30;;;11.20;99.90;;;;;;5044893;28;20609;-70
2021/10/12 06:45:24;;;;;;;14.18;5.68;;;11.20;99.90;;;;;;5043859;28;20040;-70
2021/10/12 06:47:50;;;;;;;23.08;7.03;;;11.20;99.90;;;;;;5043820;28;20447;-69
2021/10/12 06:50:17;;;;;;;17.55;5.30;;;11.20;99.90;;;;;;5027482;28;20041;-70
2021/10/12 06:52:43;;;;;;;13.80;5.25;;;11.20;99.90;;;;;;5027612;28;20041;-70
2021/10/12 06:55:10;;;;;;;15.27;4.30;;;11.20;99.90;;;;;;5027103;28;20063;-70
2021/10/12 06:57:39;;;;;;;13.52;4.38;;;11.20;99.90;;;;;;5024089;28;20048;-70
2021/10/12 07:00:07;;;;;;;20.77;5.40;;;11.30;99.90;;;;;;5027523;28;20584;-70
2021/10/12 07:02:33;;;;;;;19.42;5.32;;;11.30;99.90;;;;;;5027799;28;20702;-73
2021/10/12 07:04:59;;;;;;;11.77;4.03;;;11.30;99.90;;;;;;5027991;28;20049;-73
2021/10/12 07:07:25;;;;;;;18.80;4.43;;;11.30;99.90;;;;;;5027898;28;20069;-73
2021/10/12 07:09:51;;;;;;;14.45;4.32;;;11.30;99.90;;;;;;5027487;28;20511;-74
2021/10/12 07:12:17;;;;;;;20.42;4.90;;;11.30;99.90;;;;;;5044522;28;20033;-74
2021/10/12 07:14:43;;;;;;;21.90;5.05;;;11.30;99.90;;;;;;5027976;28;20052;-74
2021/10/12 07:17:09;;;;;;;10.15;3.40;;;11.30;99.90;;;;;;5028598;28;20443;-74
2021/10/12 07:19:35;;;;;;;22.38;5.28;;;11.30;99.90;;;;;;5042825;28;20075;-75
2021/10/12 07:22:04;;;;;;;17.33;5.40;;;11.30;99.90;;;;;;5025079;28;20052;-74
2021/10/12 07:24:30;;;;;;;11.40;3.92;;;11.40;99.90;;;;;;5052944;28;20373;-74
2021/10/12 07:26:55;;;;;;;9.65;3.17;;;11.40;99.90;;;;;;5009857;28;20056;-75
2021/10/12 07:29:22;;;;;;;4.63;1.00;;;11.40;99.90;;;;;;5028761;28;20033;-74
2021/10/12 07:31:47;;;;;;;8.40;1.80;;;11.50;99.90;;;;;;5030151;28;20505;-73
2021/10/12 07:34:13;;;;;;;7.32;1.25;;;11.40;99.90;;;;;;5013827;28;20120;-74
2021/10/12 07:36:39;;;;;;;4.88;1.05;;;11.40;99.90;;;;;;5028545;28;20492;-74
2021/10/12 07:39:07;;;;;;;6.45;1.15;;;11.40;99.90;;;;;;5030286;28;20128;-75
2021/10/12 07:41:33;;;;;;;6.80;1.00;;;11.30;99.90;;;;;;5015774;28;20041;-73
2021/10/12 07:43:59;;;;;;;6.20;1.23;;;11.30;99.90;;;;;;5055984;28;20083;-74
2021/10/12 07:46:26;;;;;;;14.27;1.58;;;11.20;99.90;;;;;;5029020;28;20056;-74
2021/10/12 07:48:53;;;;;;;12.10;1.40;;;11.20;99.90;;;;;;5041917;28;20049;-74
2021/10/12 07:51:20;;;;;;;8.93;1.55;;;11.20;99.90;;;;;;5051221;28;20044;-74
2021/10/12 07:53:47;;;;;;;5.93;1.23;;;11.10;99.90;;;;;;5028762;28;20527;-74
2021/10/12 07:56:19;;;;;;;10.70;1.80;;;11.10;99.90;;;;;;5061671;28;20041;-74
2021/10/12 07:58:50;;;;;;;13.02;1.95;;;11.10;99.90;;;;;;5034698;28;20136;-74
2021/10/12 08:01:15;;;;;;;7.93;1.60;;;11.10;99.90;;;;;;5050373;28;20526;-75
2021/10/12 08:03:41;;;;;;;9.35;1.48;;;11.20;99.90;;;;;;5039149;28;20033;-75
2021/10/12 08:06:07;;;;;;;7.32;1.50;;;11.20;99.90;;;;;;5030666;28;20179;-73
2021/10/12 08:08:33;;;;;;;8.38;2.10;;;11.20;99.90;;;;;;5065189;28;20448;-74
2021/10/12 08:10:59;;;;;;;9.02;2.72;;;11.30;99.90;;;;;;5049390;28;20090;-73
2021/10/12 08:13:27;;;;;;;8.07;2.40;;;11.30;99.90;;;;;;5051101;28;20117;-74
2021/10/12 08:15:55;;;;;;;9.43;3.70;;;11.40;99.90;;;;;;5049939;28;20059;-73
2021/10/12 08:18:24;;;;;;;12.35;2.55;;;11.40;99.90;;;;;;5034543;28;20037;-73
2021/10/12 08:20:50;;;;;;;11.48;2.90;;;11.50;99.90;;;;;;5031746;28;20506;-74
2021/10/12 08:23:16;;;;;;;9.30;2.28;;;11.50;99.90;;;;;;5049432;28;20106;-73
2021/10/12 08:25:42;;;;;;;7.05;2.03;;;11.60;99.90;;;;;;5051342;28;20072;-74
2021/10/12 08:28:08;;;;;;;11.35;2.05;;;11.60;99.90;;;;;;5033853;28;20527;-73
2021/10/12 08:30:34;;;;;;;10.55;1.52;;;11.60;99.90;;;;;;5031649;28;20068;-73
2021/10/12 08:32:59;;;;;;;9.82;1.60;;;11.70;99.90;;;;;;5032784;28;20579;-73
2021/10/12 08:35:25;;;;;;;10.45;1.80;;;11.70;99.90;;;;;;5029932;28;20447;-73
2021/10/12 08:37:51;;;;;;;11.20;1.85;;;11.70;99.90;;;;;;5028733;28;20051;-73
2021/10/12 08:40:17;;;;;;;12.23;3.47;;;11.70;99.90;;;;;;5029897;28;20522;-73
2021/10/12 08:42:47;;;;;;;10.82;2.40;;;11.70;99.90;;;;;;5025214;28;20049;-74
2021/10/12 08:45:14;;;;;;;9.13;1.58;;;11.80;99.90;;;;;;5034059;28;20041;-73
2021/10/12 08:47:41;;;;;;;8.60;1.63;;;12.00;99.90;;;;;;5031052;28;20123;-75
2021/10/12 08:50:12;;;;;;;7.43;2.45;;;12.20;99.90;;;;;;5032054;28;20052;-75
2021/10/12 08:52:38;;;;;;;7.60;1.80;;;12.50;99.90;;;;;;5034133;28;20033;-75
2021/10/12 08:55:06;;;;;;;8.68;1.75;;;12.60;99.90;;;;;;5048298;28;20406;-75
2021/10/12 08:57:37;;;;;;;8.55;1.40;;;12.70;99.90;;;;;;5028976;28;20487;-75
2021/10/12 09:00:09;;;;;;;8.80;1.55;;;12.70;99.90;;;;;;5048729;28;20100;-76
2021/10/12 09:02:57;;;;;;;7.53;1.50;;;12.80;99.90;;;;;;5047878;28;20063;-76
2021/10/12 09:05:25;;;;;;;10.23;1.20;;;12.90;99.90;;;;;;5047844;28;20040;-74
2021/10/12 09:07:54;;;;;;;9.85;1.88;;;12.90;99.90;;;;;;5046102;28;20182;-75
2021/10/12 09:10:22;;;;;;;12.60;1.55;;;13.00;99.90;;;;;;5049005;28;20098;-76
2021/10/12 09:12:49;;;;;;;10.32;1.40;;;13.00;99.90;;;;;;5029407;28;20047;-75
2021/10/12 09:15:17;;;;;;;8.23;1.30;;;13.00;99.90;;;;;;5050087;28;20079;-75
2021/10/12 09:17:46;;;;;;;7.82;1.30;;;13.00;99.90;;;;;;5027214;28;20056;-75
2021/10/12 09:20:12;;;;;;;8.05;1.40;;;13.10;99.90;;;;;;5009131;28;20574;-77
2021/10/12 09:23:00;;;;;;;6.80;0.90;;;13.00;99.90;;;;;;5046746;28;20131;-77
2021/10/12 09:25:40;;;;;;;10.25;1.58;;;13.00;99.90;;;;;;5039434;28;20051;-76
2021/10/12 09:28:07;;;;;;;7.23;1.10;;;13.10;99.90;;;;;;5045276;28;20047;-77
2021/10/12 09:30:37;;;;;;;7.88;1.48;;;13.10;99.90;;;;;;5056490;28;20321;-76
2021/10/12 09:33:09;;;;;;;8.90;1.92;;;13.20;99.90;;;;;;5058978;28;20091;-77
2021/10/12 09:35:36;;;;;;;7.85;0.88;;;13.30;99.90;;;;;;5026856;28;20037;-77
2021/10/12 09:38:12;;;;;;;8.35;1.80;;;13.30;99.90;;;;;;5012503;28;20044;-77
2021/10/12 09:40:44;;;;;;;6.47;1.27;;;13.40;99.90;;;;;;5029680;28;20458;-74
2021/10/12 09:43:10;;;;;;;7.38;1.50;;;13.30;99.90;;;;;;5033450;28;20032;-75
2021/10/12 09:45:41;;;;;;;7.07;1.02;;;13.30;99.90;;;;;;5045461;28;20043;-76
2021/10/12 09:48:45;;;;;;;8.35;1.08;;;13.30;99.90;;;;;;5043640;28;20131;-76
2021/10/12 09:51:14;;;;;;;7.97;1.10;;;13.40;99.90;;;;;;4998870;28;20061;-75
2021/10/12 09:53:43;;;;;;;9.98;1.33;;;13.50;99.90;;;;;;5000968;28;20044;-75
2021/10/12 09:56:09;;;;;;;7.63;1.33;;;13.50;99.90;;;;;;5018813;28;20048;-78
2021/10/12 09:58:36;;;;;;;9.95;1.67;;;13.50;99.90;;;;;;5044748;28;20060;-76
2021/10/12 10:01:08;;;;;;;7.20;1.63;;;13.50;99.90;;;;;;5025149;28;20040;-74
2021/10/12 10:03:34;;;;;;;7.90;1.50;;;13.40;99.90;;;;;;5032282;28;20487;-75
2021/10/12 10:06:09;;;;;;;6.65;1.50;;;13.30;99.90;;;;;;5042989;28;20040;-74
2021/10/12 10:08:37;;;;;;;11.85;1.58;;;13.10;99.90;;;;;;5048459;28;20036;-74
2021/10/12 10:11:04;;;;;;;8.25;1.77;;;13.00;99.90;;;;;;5056083;28;20086;-73
2021/10/12 10:13:33;;;;;;;6.32;1.33;;;12.90;99.90;;;;;;5049156;28;20040;-74
2021/10/12 10:16:02;;;;;;;10.60;1.60;;;13.00;99.90;;;;;;5044589;28;20063;-75
2021/10/12 10:18:29;;;;;;;7.07;1.25;;;13.00;99.90;;;;;;5041981;28;20040;-74
2021/10/12 10:20:55;;;;;;;11.05;1.85;;;13.00;99.90;;;;;;5045156;28;20097;-75
2021/10/12 10:23:46;;;;;;;6.95;1.10;;;13.00;99.90;;;;;;5054319;28;20040;-74
2021/10/12 10:26:35;;;;;;;8.25;1.00;;;13.10;99.90;;;;;;5048037;28;20036;-74
2021/10/12 10:29:16;;;;;;;7.28;0.90;;;13.20;99.90;;;;;;5027161;28;20037;-74
2021/10/12 10:31:43;;;;;;;7.03;0.90;;;13.20;99.90;;;;;;5061800;28;20048;-74
2021/10/12 10:34:37;;;;;;;5.63;1.08;;;13.20;97.60;;;;;;5026589;28;20037;-74
2021/10/12 10:37:15;;;;;;;5.63;0.90;;;13.30;93.40;;;;;;5021385;28;20052;-74
2021/10/12 10:39:51;;;;;;;5.85;1.23;;;13.30;93.90;;;;;;5045793;28;20108;-74
2021/10/12 10:42:43;;;;;;;5.63;1.48;;;13.30;95.60;;;;;;5061337;28;20080;-75
2021/10/12 10:45:12;;;;;;;3.67;0.77;;;13.40;94.80;;;;;;5024781;28;20048;-74
2021/10/12 10:47:41;;;;;;;4.75;0.88;;;13.40;95.70;;;;;;5044523;28;20059;-73
2021/10/12 10:50:14;;;;;;;5.65;1.00;;;13.40;94.00;;;;;;5041555;28;20052;-74
2021/10/12 10:52:47;;;;;;;6.25;1.02;;;13.40;94.80;;;;;;5028591;28;20132;-75
2021/10/12 10:55:28;;;;;;;4.15;0.85;;;13.30;97.10;;;;;;5042462;28;20143;-75
2021/10/12 10:58:09;;;;;;;;;;;13.30;97.60;;;;;;5047150;28;20056;-73
2021/10/12 11:00:54;;;;;;;5.90;1.00;;;13.30;97.10;;;;;;5077527;28;19920;-73
2021/10/12 11:03:30;;;;;;;6.68;1.33;;;13.40;94.10;;;;;;5031428;28;20711;-74
2021/10/12 11:06:18;;;;;;;5.50;1.00;;;13.50;94.30;;;;;;5045474;28;20205;-74
2021/10/12 11:09:02;;;;;;;5.90;1.00;;;13.60;93.10;;;;;;5054036;28;20619;-73
2021/10/12 11:11:35;;;;;;;6.60;0.70;;;13.60;92.80;;;;;;5033258;28;20118;-73
2021/10/12 11:14:03;;;;;;;8.13;1.05;;;13.70;93.60;;;;;;5034059;28;20037;-75
2021/10/12 11:16:38;;;;;;;6.65;1.25;;;13.60;93.40;;;;;;5017273;28;20140;-74
2021/10/12 11:19:05;;;;;;;3.30;0.73;;;13.70;93.60;;;;;;5017229;28;20052;-75
2021/10/12 11:21:35;;;;;;;6.65;1.30;;;13.70;94.20;;;;;;5016903;28;20048;-75
2021/10/12 11:24:02;;;;;;;6.45;1.20;;;13.70;93.60;;;;;;5039021;28;20082;-75
2021/10/12 11:26:29;;;;;;;7.07;1.15;;;13.70;94.30;;;;;;5041722;28;20470;-75
2021/10/12 11:29:03;;;;;;;7.20;1.67;;;13.60;95.40;;;;;;5047040;28;20143;-72
2021/10/12 11:31:31;;;;;;;6.35;1.17;;;13.60;93.60;;;;;;5030901;28;20067;-75
2021/10/12 11:34:02;;;;;;;4.60;0.82;;;13.60;92.30;;;;;;5047876;28;20044;-75
2021/10/12 11:36:30;;;;;;;5.65;1.40;;;13.50;92.40;;;;;;5052751;28;20483;-75
2021/10/12 11:39:04;;;;;;;6.22;1.02;;;13.50;92.90;;;;;;5048074;28;20056;-74
2021/10/12 11:41:37;;;;;;;5.72;1.17;;;13.50;92.50;;;;;;5022259;28;20136;-74
2021/10/12 11:44:18;;;;;;;7.93;0.90;;;13.60;93.20;;;;;;5033078;28;20041;-73
2021/10/12 11:46:49;;;;;;;7.65;1.17;;;13.70;90.60;;;;;;5007198;28;20072;-75
2021/10/12 11:49:17;;;;;;;8.57;1.65;;;13.80;92.50;;;;;;5032045;28;20059;-75
2021/10/12 11:51:45;;;;;;;8.05;1.00;;;13.90;93.50;;;;;;5016337;28;20166;-75
2021/10/12 11:54:11;;;;;;;5.07;0.88;;;14.00;94.20;;;;;;5032739;28;20681;-76
2021/10/12 11:56:39;;;;;;;6.25;1.00;;;14.10;94.80;;;;;;5026757;28;20036;-74
2021/10/12 11:59:10;;;;;;;6.50;0.90;;;14.00;97.30;;;;;;5049207;28;20076;-73
2021/10/12 12:01:44;;;;;;;8.68;1.40;;;13.60;98.60;;;;;;5031402;28;20047;-74
2021/10/12 12:04:11;;;;;;;5.43;1.20;;;13.20;99.90;;;;;;5034334;28;20040;-75
2021/10/12 12:06:43;;;;;;;7.82;1.35;;;12.70;99.90;;;;;;5051836;28;20039;-76
2021/10/12 12:09:22;;;;;;;7.07;1.00;;;12.50;99.90;;;;;;5035026;28;20044;-76
2021/10/12 12:11:49;;;;;;;5.78;1.17;;;12.20;99.90;;;;;;5028870;28;20372;-76
2021/10/12 12:14:22;;;;;;;7.70;1.77;;;12.10;99.90;;;;;;5050824;28;20155;-75
2021/10/12 12:17:04;;;;;;;9.05;1.63;;;12.10;99.90;;;;;;5051566;28;20448;-75
2021/10/12 12:19:31;;;;;;;7.72;1.48;;;12.20;99.90;;;;;;5049648;28;20125;-76
2021/10/12 12:22:10;;;;;;;9.23;1.33;;;12.30;99.90;;;;;;5031679;28;20842;-75
2021/10/12 12:24:36;;;;;;;5.45;0.98;;;12.50;99.90;;;;;;5034182;28;20070;-75
2021/10/12 12:27:03;;;;;;;9.65;1.70;;;12.70;99.90;;;;;;5051591;28;20044;-75
2021/10/12 12:29:30;;;;;;;9.38;2.25;;;12.90;99.90;;;;;;5050965;28;20072;-75
2021/10/12 12:31:58;;;;;;;7.47;1.15;;;13.20;99.90;;;;;;5046147;28;20048;-75
2021/10/12 12:34:30;;;;;;;10.02;1.40;;;13.30;99.90;;;;;;5044671;28;20041;-76
2021/10/12 12:36:56;;;;;;;8.10;1.15;;;13.50;99.90;;;;;;5031061;28;20049;-74
2021/10/12 12:39:41;;;;;;;5.25;1.23;;;13.50;99.90;;;;;;5039115;28;20051;-74
2021/10/12 12:42:28;;;;;;;5.40;0.93;;;13.40;97.30;;;;;;5050012;28;20551;-75
2021/10/12 12:45:14;;;;;;;5.45;1.10;;;13.20;96.70;;;;;;5051134;28;20512;-75
2021/10/12 12:47:52;;;;;;;6.55;1.23;;;13.00;98.30;;;;;;5047996;28;20045;-73
2021/10/12 12:50:27;;;;;;;7.55;1.30;;;13.10;97.20;;;;;;5051139;28;20437;-73